createdAt,value
2022-11-25T00:01:08.942Z,-1.27
2022-11-25T00:03:36.634Z,-1.26
2022-11-25T00:06:12.605Z,-1.33
2022-11-25T00:08:40.324Z,-1.32
2022-11-25T00:11:07.598Z,-1.33
2022-11-25T00:13:35.169Z,-1.35
2022-11-25T00:16:10.311Z,-1.41
2022-11-25T00:18:37.604Z,-1.46
2022-11-25T00:21:09.760Z,-1.46
2022-11-25T00:23:37.908Z,-1.50
2022-11-25T00:26:32.846Z,-1.55
2022-11-25T00:29:01.908Z,-1.56
2022-11-25T00:31:33.386Z,-1.56
2022-11-25T00:34:00.597Z,-1.60
2022-11-25T00:36:30.169Z,-1.60
2022-11-25T00:39:03.422Z,-1.60
2022-11-25T00:41:49.450Z,-1.62
2022-11-25T00:44:38.307Z,-1.64
2022-11-25T00:47:20.183Z,-1.65
2022-11-25T00:49:52.477Z,-1.62
2022-11-25T00:52:22.339Z,-1.65
2022-11-25T00:54:50.178Z,-1.65
2022-11-25T00:57:19.308Z,-1.64
2022-11-25T00:59:46.828Z,-1.64
2022-11-25T01:02:15.744Z,-1.61
2022-11-25T01:04:43.127Z,-1.61
2022-11-25T01:07:10.467Z,-1.59
2022-11-25T01:09:37.810Z,-1.58
2022-11-25T01:12:05.565Z,-1.56
2022-11-25T01:14:33.268Z,-1.56
2022-11-25T01:17:00.470Z,-1.55
2022-11-25T01:19:27.716Z,-1.53
2022-11-25T01:21:54.796Z,-1.53
2022-11-25T01:24:24.039Z,-1.52
2022-11-25T01:26:51.349Z,-1.55
2022-11-25T01:29:19.126Z,-1.53
2022-11-25T01:31:46.860Z,-1.53
2022-11-25T01:34:19.408Z,-1.54
2022-11-25T01:36:46.980Z,-1.54
2022-11-25T01:39:18.373Z,-1.51
2022-11-25T01:41:46.484Z,-1.53
2022-11-25T01:44:19.726Z,-1.54
2022-11-25T01:47:03.677Z,-1.53
2022-11-25T01:49:40.089Z,-1.54
2022-11-25T01:52:34.488Z,-1.55
2022-11-25T01:55:24.648Z,-1.55
2022-11-25T01:58:15.117Z,-1.52
2022-11-25T02:00:44.433Z,-1.51
2022-11-25T02:03:11.664Z,-1.50
2022-11-25T02:06:00.340Z,-1.51
2022-11-25T02:08:28.513Z,-1.51
2022-11-25T02:10:56.071Z,-1.54
2022-11-25T02:13:24.280Z,-1.51
2022-11-25T02:15:51.097Z,-1.49
2022-11-25T02:18:18.409Z,-1.50
2022-11-25T02:20:45.743Z,-1.45
2022-11-25T02:23:19.682Z,-1.49
2022-11-25T02:25:47.816Z,-1.48
2022-11-25T02:28:18.450Z,-1.48
2022-11-25T02:30:46.140Z,-1.48
2022-11-25T02:33:14.284Z,-1.47
2022-11-25T02:35:43.141Z,-1.50
2022-11-25T02:38:15.413Z,-1.48
2022-11-25T02:41:06.356Z,-1.53
2022-11-25T02:43:33.698Z,-1.53
2022-11-25T02:46:01.996Z,-1.53
2022-11-25T02:49:06.974Z,-1.52
2022-11-25T02:51:21.649Z,-1.51
2022-11-25T02:53:49.108Z,-1.48
2022-11-25T02:56:17.200Z,-1.44
2022-11-25T02:58:44.512Z,-1.45
2022-11-25T03:01:11.459Z,-1.49
2022-11-25T03:03:39.129Z,-1.49
2022-11-25T03:06:06.312Z,-1.53
2022-11-25T03:08:33.393Z,-1.53
2022-11-25T03:11:00.228Z,-1.50
2022-11-25T03:13:27.340Z,-1.48
2022-11-25T03:15:54.176Z,-1.45
2022-11-25T03:18:21.297Z,-1.45
2022-11-25T03:20:52.468Z,-1.42
2022-11-25T03:23:20.059Z,-1.40
2022-11-25T03:25:46.880Z,-1.42
2022-11-25T03:28:14.228Z,-1.39
2022-11-25T03:30:41.144Z,-1.36
2022-11-25T03:33:08.211Z,-1.36
2022-11-25T03:35:35.044Z,-1.34
2022-11-25T03:38:02.140Z,-1.32
2022-11-25T03:40:28.922Z,-1.30
2022-11-25T03:42:56.023Z,-1.31
2022-11-25T03:45:22.756Z,-1.32
2022-11-25T03:47:49.889Z,-1.31
2022-11-25T03:50:16.825Z,-1.30
2022-11-25T03:52:44.002Z,-1.31
2022-11-25T03:55:13.224Z,-1.28
2022-11-25T03:57:41.308Z,-1.26
2022-11-25T04:00:09.548Z,-1.29
2022-11-25T04:02:37.692Z,-1.30
2022-11-25T04:05:05.604Z,-1.32
2022-11-25T04:07:32.827Z,-1.32
2022-11-25T04:09:59.618Z,-1.30
2022-11-25T04:12:45.342Z,-1.30
2022-11-25T04:15:12.803Z,-1.33
2022-11-25T04:17:40.496Z,-1.33
2022-11-25T04:20:07.876Z,-1.32
2022-11-25T04:22:35.157Z,-1.33
2022-11-25T04:25:02.081Z,-1.31
2022-11-25T04:27:29.217Z,-1.32
2022-11-25T04:29:56.006Z,-1.28
2022-11-25T04:32:23.243Z,-1.28
2022-11-25T04:34:50.059Z,-1.28
2022-11-25T04:37:17.165Z,-1.27
2022-11-25T04:39:44.001Z,-1.28
2022-11-25T04:42:29.325Z,-1.27
2022-11-25T04:45:20.863Z,-1.28
2022-11-25T04:47:44.573Z,-1.30
2022-11-25T04:50:17.783Z,-1.32
2022-11-25T04:52:44.945Z,-1.33
2022-11-25T04:55:11.974Z,-1.34
2022-11-25T04:57:39.221Z,-1.35
2022-11-25T05:00:07.547Z,-1.34
2022-11-25T05:02:34.825Z,-1.36
2022-11-25T05:05:01.999Z,-1.34
2022-11-25T05:07:29.863Z,-1.30
2022-11-25T05:09:57.147Z,-1.30
2022-11-25T05:12:27.416Z,-1.30
2022-11-25T05:14:54.532Z,-1.29
2022-11-25T05:17:24.446Z,-1.30
2022-11-25T05:19:51.622Z,-1.32
2022-11-25T05:22:38.914Z,-1.32
2022-11-25T05:25:06.157Z,-1.36
2022-11-25T05:27:33.163Z,-1.39
2022-11-25T05:29:59.949Z,-1.40
2022-11-25T05:32:26.987Z,-1.39
2022-11-25T05:34:53.785Z,-1.39
2022-11-25T05:37:24.354Z,-1.39
2022-11-25T05:39:51.778Z,-1.41
2022-11-25T05:42:19.012Z,-1.40
2022-11-25T05:44:45.844Z,-1.39
2022-11-25T05:47:12.924Z,-1.44
2022-11-25T05:49:39.769Z,-1.42
2022-11-25T05:52:06.820Z,-1.39
2022-11-25T05:54:33.823Z,-1.39
2022-11-25T05:57:00.991Z,-1.39
2022-11-25T05:59:27.848Z,-1.39
2022-11-25T06:01:54.913Z,-1.37
2022-11-25T06:04:21.736Z,-1.37
2022-11-25T06:06:48.814Z,-1.34
2022-11-25T06:09:15.552Z,-1.34
2022-11-25T06:11:42.704Z,-1.31
2022-11-25T06:14:09.849Z,-1.29
2022-11-25T06:16:36.880Z,-1.28
2022-11-25T06:19:07.182Z,-1.31
2022-11-25T06:21:34.304Z,-1.33
2022-11-25T06:24:01.569Z,-1.33
2022-11-25T06:26:28.756Z,-1.31
2022-11-25T06:28:56.444Z,-1.29
2022-11-25T06:31:25.632Z,-1.29
2022-11-25T06:33:53.613Z,-1.24
2022-11-25T06:36:22.051Z,-1.25
2022-11-25T06:38:51.213Z,-1.25
2022-11-25T06:41:19.290Z,-1.22
2022-11-25T06:43:46.109Z,-1.21
2022-11-25T06:46:19.848Z,-1.16
2022-11-25T06:48:51.235Z,-1.14
2022-11-25T06:51:18.659Z,-1.13
2022-11-25T06:53:45.923Z,-1.08
2022-11-25T06:56:16.408Z,-1.07
2022-11-25T06:58:44.817Z,-1.08
2022-11-25T07:01:13.254Z,-1.07
2022-11-25T07:03:40.604Z,-1.04
2022-11-25T07:06:08.437Z,-1.00
2022-11-25T07:08:35.788Z,-0.96
2022-11-25T07:11:20.699Z,-0.95
2022-11-25T07:13:48.754Z,-0.90
2022-11-25T07:16:15.860Z,-0.88
2022-11-25T07:18:43.053Z,-0.84
2022-11-25T07:21:15.924Z,-0.82
2022-11-25T07:23:45.106Z,-0.83
2022-11-25T07:26:13.774Z,-0.79
2022-11-25T07:28:41.383Z,-0.76
2022-11-25T07:31:32.451Z,-0.71
2022-11-25T07:34:04.080Z,-0.68
2022-11-25T07:36:33.033Z,-0.66
2022-11-25T07:39:01.801Z,-0.64
2022-11-25T07:41:29.238Z,-0.63
2022-11-25T07:43:58.666Z,-0.60
2022-11-25T07:46:37.552Z,-0.57
2022-11-25T07:49:07.695Z,-0.53
2022-11-25T07:51:41.217Z,-0.50
2022-11-25T07:54:10.202Z,-0.46
2022-11-25T07:56:40.136Z,-0.42
2022-11-25T07:59:15.025Z,-0.37
2022-11-25T08:01:43.021Z,-0.35
2022-11-25T08:04:18.091Z,-0.31
2022-11-25T08:06:48.517Z,-0.31
2022-11-25T08:09:20.944Z,-0.28
2022-11-25T08:11:49.435Z,-0.25
2022-11-25T08:14:16.829Z,-0.21
2022-11-25T08:16:44.768Z,-0.22
2022-11-25T08:19:15.042Z,-0.16
2022-11-25T08:21:42.527Z,-0.08
2022-11-25T08:24:18.013Z,-0.04
2022-11-25T08:26:45.113Z,0.03
2022-11-25T08:29:17.077Z,0.09
2022-11-25T08:31:44.496Z,0.12
2022-11-25T08:34:18.980Z,0.17
2022-11-25T08:36:48.478Z,0.17
2022-11-25T08:39:44.183Z,0.19
2022-11-25T08:42:05.904Z,0.28
2022-11-25T08:44:33.129Z,0.29
2022-11-25T08:47:00.985Z,0.32
2022-11-25T08:49:31.150Z,0.34
2022-11-25T08:52:00.769Z,0.33
2022-11-25T08:54:27.491Z,0.35
2022-11-25T08:56:54.649Z,0.40
2022-11-25T08:59:22.899Z,0.43
2022-11-25T09:01:50.080Z,0.48
2022-11-25T09:04:16.956Z,0.54
2022-11-25T09:06:44.073Z,0.62
2022-11-25T09:09:10.860Z,0.72
2022-11-25T09:11:37.938Z,0.82
2022-11-25T09:14:04.813Z,0.87
2022-11-25T09:16:32.688Z,0.95
2022-11-25T09:19:00.208Z,1.08
2022-11-25T09:21:27.452Z,1.22
2022-11-25T09:23:57.620Z,1.41
2022-11-25T09:26:28.237Z,1.64
2022-11-25T09:28:55.908Z,1.95
2022-11-25T09:31:24.054Z,2.23
2022-11-25T09:33:51.304Z,2.52
2022-11-25T09:36:20.097Z,2.84
2022-11-25T09:38:47.001Z,2.97
2022-11-25T09:42:07.125Z,2.87
2022-11-25T09:45:01.677Z,2.67
2022-11-25T09:47:31.731Z,2.43
2022-11-25T09:50:20.903Z,2.20
2022-11-25T09:52:56.507Z,2.04
2022-11-25T09:55:25.638Z,1.94
2022-11-25T09:58:23.623Z,1.73
2022-11-25T10:00:52.708Z,1.63
2022-11-25T10:03:41.308Z,1.52
2022-11-25T10:06:13.929Z,1.44
2022-11-25T10:08:48.131Z,1.43
2022-11-25T10:11:21.284Z,1.40
2022-11-25T10:13:57.820Z,1.42
2022-11-25T10:16:47.144Z,1.48
2022-11-25T10:19:28.820Z,1.42
2022-11-25T10:21:55.705Z,1.41
2022-11-25T10:24:24.284Z,1.41
2022-11-25T10:27:00.279Z,1.38
2022-11-25T10:29:29.740Z,1.45
2022-11-25T10:32:05.025Z,1.44
2022-11-25T10:34:37.234Z,1.51
2022-11-25T10:37:12.573Z,1.58
2022-11-25T10:39:40.456Z,1.69
2022-11-25T10:42:15.261Z,1.76
2022-11-25T10:44:42.567Z,1.84
2022-11-25T10:47:35.752Z,1.96
2022-11-25T10:50:09.188Z,2.04
2022-11-25T10:52:45.263Z,2.08
2022-11-25T10:55:15.799Z,2.18
2022-11-25T10:57:43.094Z,2.19
2022-11-25T11:00:28.959Z,2.18
2022-11-25T11:02:57.096Z,2.19
2022-11-25T11:05:29.708Z,2.17
2022-11-25T11:08:17.599Z,2.14
2022-11-25T11:10:45.309Z,2.13
2022-11-25T11:13:23.330Z,2.10
2022-11-25T11:15:51.446Z,2.08
2022-11-25T11:18:25.982Z,2.04
2022-11-25T11:20:59.482Z,1.99
2022-11-25T11:23:28.264Z,1.83
2022-11-25T11:25:56.439Z,1.71
2022-11-25T11:28:25.976Z,1.65
2022-11-25T11:31:19.046Z,1.63
2022-11-25T11:33:48.698Z,1.67
2022-11-25T11:36:36.764Z,1.73
2022-11-25T11:39:31.081Z,1.78
2022-11-25T11:42:27.669Z,1.68
2022-11-25T11:45:16.038Z,1.62
2022-11-25T11:48:04.547Z,1.63
2022-11-25T11:50:32.607Z,1.69
2022-11-25T11:53:02.561Z,1.73
2022-11-25T11:55:41.349Z,1.67
2022-11-25T11:58:23.365Z,1.66
2022-11-25T12:01:16.388Z,1.70
2022-11-25T12:03:55.631Z,1.67
2022-11-25T12:06:24.405Z,1.67
2022-11-25T12:08:59.214Z,1.63
2022-11-25T12:11:35.839Z,1.70
2022-11-25T12:14:07.410Z,1.70
2022-11-25T12:16:41.637Z,1.68
2022-11-25T12:19:27.085Z,1.75
2022-11-25T12:22:08.426Z,1.71
2022-11-25T12:25:01.754Z,1.72
2022-11-25T12:27:53.026Z,1.74
2022-11-25T12:30:22.900Z,1.75
2022-11-25T12:33:10.656Z,1.71
2022-11-25T12:36:03.957Z,1.67
2022-11-25T12:38:47.132Z,1.58
2022-11-25T12:41:17.025Z,1.53
2022-11-25T12:43:55.328Z,1.52
2022-11-25T12:46:28.496Z,1.53
2022-11-25T12:48:58.164Z,1.50
2022-11-25T12:51:54.264Z,1.44
2022-11-25T12:54:23.675Z,1.39
2022-11-25T12:57:07.396Z,1.33
2022-11-25T13:00:32.693Z,1.31
2022-11-25T13:03:20.212Z,1.24
2022-11-25T13:05:49.660Z,1.23
2022-11-25T13:08:41.777Z,1.16
2022-11-25T13:11:33.625Z,1.11
2022-11-25T13:14:23.981Z,1.10
2022-11-25T13:16:53.256Z,1.05
2022-11-25T13:19:21.345Z,0.96
2022-11-25T13:21:57.036Z,0.98
2022-11-25T13:24:33.553Z,0.98
2022-11-25T13:27:01.596Z,1.02
2022-11-25T13:29:28.721Z,1.02
2022-11-25T13:31:59.490Z,1.04
2022-11-25T13:34:29.669Z,1.03
2022-11-25T13:37:01.793Z,1.04
2022-11-25T13:39:34.207Z,1.06
2022-11-25T13:42:18.052Z,1.07
2022-11-25T13:44:58.377Z,1.06
2022-11-25T13:47:28.337Z,1.03
2022-11-25T13:49:58.529Z,1.01
2022-11-25T13:52:35.051Z,1.01
2022-11-25T13:55:10.099Z,1.01
2022-11-25T13:57:40.685Z,1.00
2022-11-25T14:00:14.738Z,1.00
2022-11-25T14:02:49.564Z,0.93
2022-11-25T14:05:34.151Z,0.91
2022-11-25T14:08:21.528Z,0.88
2022-11-25T14:11:03.430Z,0.89
2022-11-25T14:14:07.982Z,0.86
2022-11-25T14:17:16.163Z,0.86
2022-11-25T14:20:21.795Z,0.85
2022-11-25T14:23:16.091Z,0.82
2022-11-25T14:26:20.999Z,0.79
2022-11-25T14:29:00.709Z,0.79
2022-11-25T14:31:36.278Z,0.81
2022-11-25T14:34:34.074Z,0.81
2022-11-25T14:37:12.527Z,0.82
2022-11-25T14:39:47.391Z,0.83
2022-11-25T14:42:17.812Z,0.82
2022-11-25T14:44:49.298Z,0.81
2022-11-25T14:47:25.002Z,0.85
2022-11-25T14:52:44.195Z,0.85
2022-11-25T14:55:11.944Z,0.87
2022-11-25T14:57:43.821Z,0.86
2022-11-25T15:00:17.953Z,0.87
2022-11-25T15:02:54.079Z,0.87
2022-11-25T15:05:33.214Z,0.91
2022-11-25T15:08:07.985Z,0.88
2022-11-25T15:10:54.905Z,0.88
2022-11-25T15:13:29.621Z,0.90
2022-11-25T15:16:05.107Z,0.91
2022-11-25T15:18:34.976Z,0.93
2022-11-25T15:21:02.680Z,0.92
2022-11-25T15:23:37.572Z,0.93
2022-11-25T15:26:14.524Z,0.93
2022-11-25T15:28:42.038Z,0.93
2022-11-25T15:31:12.853Z,0.93
2022-11-25T15:33:41.558Z,0.95
2022-11-25T15:36:08.577Z,0.93
2022-11-25T15:38:46.531Z,0.93
2022-11-25T15:41:35.974Z,0.93
2022-11-25T15:44:06.053Z,0.93
2022-11-25T15:46:35.840Z,0.91
2022-11-25T15:49:05.985Z,0.91
2022-11-25T15:51:41.692Z,0.93
2022-11-25T15:54:24.896Z,0.90
2022-11-25T15:56:56.302Z,0.94
2022-11-25T15:59:49.572Z,0.90
2022-11-25T16:02:39.659Z,0.88
2022-11-25T16:05:13.049Z,0.86
2022-11-25T16:07:52.337Z,0.86
2022-11-25T16:10:23.775Z,0.85
2022-11-25T16:13:21.118Z,0.83
2022-11-25T16:16:10.499Z,0.84
2022-11-25T16:18:44.187Z,0.87
2022-11-25T16:21:22.511Z,0.87
2022-11-25T16:23:53.758Z,0.87
2022-11-25T16:26:31.963Z,0.87
2022-11-25T16:29:00.858Z,0.87
2022-11-25T16:31:28.743Z,0.83
2022-11-25T16:34:29.776Z,0.85
2022-11-25T16:36:56.960Z,0.85
2022-11-25T16:39:24.493Z,0.86
2022-11-25T16:41:57.893Z,0.88
2022-11-25T16:44:26.358Z,0.90
2022-11-25T16:46:54.174Z,0.92
2022-11-25T16:49:22.644Z,0.94
2022-11-25T16:51:53.329Z,0.95
2022-11-25T16:54:21.555Z,0.96
2022-11-25T16:56:58.399Z,0.94
2022-11-25T16:59:32.462Z,0.93
2022-11-25T17:02:01.329Z,0.96
2022-11-25T17:04:28.516Z,0.96
2022-11-25T17:07:30.553Z,0.97
2022-11-25T17:09:44.370Z,0.97
2022-11-25T17:12:21.241Z,0.97
2022-11-25T17:14:48.999Z,0.96
2022-11-25T17:17:24.402Z,0.98
2022-11-25T17:19:52.130Z,0.98
2022-11-25T17:22:22.720Z,0.98
2022-11-25T17:24:49.637Z,1.00
2022-11-25T17:27:25.008Z,1.00
2022-11-25T17:29:52.686Z,1.02
2022-11-25T17:32:20.808Z,1.03
2022-11-25T17:34:47.661Z,1.07
2022-11-25T17:37:17.435Z,1.10
2022-11-25T17:39:44.579Z,1.10
2022-11-25T17:42:15.108Z,1.10
2022-11-25T17:44:42.732Z,1.13
2022-11-25T17:47:15.528Z,1.15
2022-11-25T17:49:42.599Z,1.19
2022-11-25T17:52:09.677Z,1.20
2022-11-25T17:54:36.669Z,1.23
2022-11-25T17:57:05.513Z,1.24
2022-11-25T17:59:33.934Z,1.27
2022-11-25T18:02:01.264Z,1.27
2022-11-25T18:04:34.751Z,1.28
2022-11-25T18:07:02.040Z,1.28
2022-11-25T18:09:28.793Z,1.27
2022-11-25T18:11:59.244Z,1.29
2022-11-25T18:14:30.888Z,1.30
2022-11-25T18:17:01.860Z,1.31
2022-11-25T18:19:28.826Z,1.32
2022-11-25T18:22:02.190Z,1.34
2022-11-25T18:24:28.972Z,1.35
2022-11-25T18:26:57.724Z,1.37
2022-11-25T18:29:27.001Z,1.36
2022-11-25T18:31:56.568Z,1.36
2022-11-25T18:34:24.129Z,1.35
2022-11-25T18:36:51.934Z,1.37
2022-11-25T18:39:19.306Z,1.38
2022-11-25T18:41:47.409Z,1.39
2022-11-25T18:44:26.778Z,1.39
2022-11-25T18:46:54.889Z,1.39
2022-11-25T18:49:22.233Z,1.40
2022-11-25T18:51:49.355Z,1.40
2022-11-25T18:54:16.128Z,1.40
2022-11-25T18:56:43.737Z,1.41
2022-11-25T18:59:17.352Z,1.42
2022-11-25T19:01:49.649Z,1.42
2022-11-25T19:04:17.067Z,1.42
2022-11-25T19:06:44.397Z,1.43
2022-11-25T19:09:12.274Z,1.42
2022-11-25T19:11:52.673Z,1.42
2022-11-25T19:14:33.396Z,1.42
2022-11-25T19:17:04.023Z,1.40
2022-11-25T19:19:31.032Z,1.40
2022-11-25T19:22:01.318Z,1.38
2022-11-25T19:24:28.411Z,1.36
2022-11-25T19:26:57.236Z,1.30
2022-11-25T19:29:35.375Z,1.23
2022-11-25T19:32:11.860Z,1.16
2022-11-25T19:34:44.680Z,1.08
2022-11-25T19:37:17.344Z,1.04
2022-11-25T19:39:44.166Z,1.06
2022-11-25T19:42:11.332Z,1.03
2022-11-25T19:44:38.394Z,1.03
2022-11-25T19:47:15.176Z,1.06
2022-11-25T19:49:42.915Z,1.03
2022-11-25T19:52:15.674Z,1.00
2022-11-25T19:54:43.035Z,1.00
2022-11-25T19:57:21.056Z,1.00
2022-11-25T19:59:48.539Z,1.00
2022-11-25T20:02:25.427Z,1.04
2022-11-25T20:04:56.152Z,1.09
2022-11-25T20:07:23.522Z,1.11
2022-11-25T20:09:54.627Z,1.11
2022-11-25T20:12:30.520Z,1.12
2022-11-25T20:14:57.273Z,1.15
2022-11-25T20:17:36.604Z,1.20
2022-11-25T20:20:09.759Z,1.17
2022-11-25T20:22:42.792Z,1.20
2022-11-25T20:25:15.471Z,1.20
2022-11-25T20:27:42.615Z,1.19
2022-11-25T20:30:19.664Z,1.19
2022-11-25T20:32:46.937Z,1.18
2022-11-25T20:35:14.264Z,1.20
2022-11-25T20:37:53.989Z,1.20
2022-11-25T20:40:24.719Z,1.21
2022-11-25T20:42:52.986Z,1.24
2022-11-25T20:45:22.056Z,1.27
2022-11-25T20:47:50.991Z,1.29
2022-11-25T20:50:19.242Z,1.29
2022-11-25T20:52:47.814Z,1.30
2022-11-25T20:55:16.724Z,1.27
2022-11-25T20:57:44.246Z,1.16
2022-11-25T21:00:23.125Z,1.14
2022-11-25T21:02:51.502Z,1.11
2022-11-25T21:05:19.012Z,1.08
2022-11-25T21:07:48.004Z,1.08
2022-11-25T21:10:34.814Z,1.02
2022-11-25T21:13:09.441Z,1.00
2022-11-25T21:15:36.272Z,0.99
2022-11-25T21:18:03.371Z,0.97
2022-11-25T21:20:30.312Z,0.97
2022-11-25T21:22:58.573Z,1.00
2022-11-25T21:25:25.769Z,0.97
2022-11-25T21:27:52.800Z,0.99
2022-11-25T21:30:31.143Z,1.00
2022-11-25T21:33:00.909Z,1.01
2022-11-25T21:35:33.841Z,1.02
2022-11-25T21:38:06.178Z,1.01
2022-11-25T21:40:35.635Z,1.03
2022-11-25T21:43:04.449Z,1.06
2022-11-25T21:45:31.336Z,1.10
2022-11-25T21:47:58.337Z,1.12
2022-11-25T21:50:29.640Z,1.14
2022-11-25T21:52:57.264Z,1.18
2022-11-25T21:55:24.008Z,1.19
2022-11-25T21:57:51.421Z,1.21
2022-11-25T22:00:24.568Z,1.20
2022-11-25T22:02:52.511Z,1.19
2022-11-25T22:05:22.344Z,1.16
2022-11-25T22:07:49.554Z,1.12
2022-11-25T22:10:17.308Z,1.11
2022-11-25T22:12:46.979Z,1.09
2022-11-25T22:15:20.208Z,1.10
2022-11-25T22:17:48.609Z,1.07
2022-11-25T22:20:29.187Z,1.02
2022-11-25T22:22:56.740Z,1.04
2022-11-25T22:25:25.799Z,1.06
2022-11-25T22:27:53.100Z,1.07
2022-11-25T22:30:21.826Z,1.04
2022-11-25T22:32:56.992Z,1.04
2022-11-25T22:35:23.795Z,1.04
2022-11-25T22:37:55.186Z,1.08
2022-11-25T22:40:23.866Z,1.12
2022-11-25T22:42:54.149Z,1.14
2022-11-25T22:45:31.306Z,1.16
2022-11-25T22:48:00.709Z,1.18
2022-11-25T22:50:31.126Z,1.20
2022-11-25T22:52:59.903Z,1.26
2022-11-25T22:55:29.486Z,1.30
2022-11-25T22:57:58.522Z,1.33
2022-11-25T23:00:37.684Z,1.36
2022-11-25T23:03:06.770Z,1.39
2022-11-25T23:05:36.145Z,1.38
2022-11-25T23:08:14.346Z,1.43
2022-11-25T23:10:41.458Z,1.45
2022-11-25T23:13:08.960Z,1.44
2022-11-25T23:15:36.415Z,1.39
2022-11-25T23:18:07.326Z,1.40
2022-11-25T23:20:37.394Z,1.40
2022-11-25T23:23:14.562Z,1.40
2022-11-25T23:25:41.580Z,1.41
2022-11-25T23:28:08.754Z,1.42
2022-11-25T23:30:35.859Z,1.42
2022-11-25T23:33:04.352Z,1.43
2022-11-25T23:35:38.983Z,1.43
2022-11-25T23:38:08.833Z,1.49
2022-11-25T23:40:35.615Z,1.50
2022-11-25T23:43:03.182Z,1.52
2022-11-25T23:45:30.043Z,1.51
2022-11-25T23:47:57.413Z,1.52
2022-11-25T23:50:32.335Z,1.56
2022-11-25T23:53:07.162Z,1.55
2022-11-25T23:55:37.266Z,1.58
2022-11-25T23:58:15.123Z,1.61
